sensor_id;sensor_type;location;lat;lon;timestamp;P1;durP1;ratioP1;P2;durP2;ratioP2
13588;SDS011;6865;52.552;13.434;2022-08-21T00:00:13;9.25;;;8.35;;
13588;SDS011;6865;52.552;13.434;2022-08-21T00:02:48;8.07;;;7.28;;
13588;SDS011;6865;52.552;13.434;2022-08-21T00:05:24;8.82;;;7.60;;
13588;SDS011;6865;52.552;13.434;2022-08-21T00:07:52;10.43;;;7.70;;
13588;SDS011;6865;52.552;13.434;2022-08-21T00:10:19;10.40;;;7.60;;
13588;SDS011;6865;52.552;13.434;2022-08-21T00:12:46;10.02;;;8.18;;
13588;SDS011;6865;52.552;13.434;2022-08-21T00:15:15;10.02;;;8.55;;
13588;SDS011;6865;52.552;13.434;2022-08-21T00:17:45;10.77;;;8.68;;
13588;SDS011;6865;52.552;13.434;2022-08-21T00:20:13;9.00;;;7.80;;
13588;SDS011;6865;52.552;13.434;2022-08-21T00:22:41;9.38;;;7.68;;
13588;SDS011;6865;52.552;13.434;2022-08-21T00:25:09;11.10;;;7.65;;
13588;SDS011;6865;52.552;13.434;2022-08-21T00:27:37;9.02;;;7.90;;
13588;SDS011;6865;52.552;13.434;2022-08-21T00:30:05;8.57;;;7.63;;
13588;SDS011;6865;52.552;13.434;2022-08-21T00:32:33;9.80;;;7.95;;
13588;SDS011;6865;52.552;13.434;2022-08-21T00:35:01;10.38;;;8.38;;
13588;SDS011;6865;52.552;13.434;2022-08-21T00:37:29;12.02;;;8.02;;
13588;SDS011;6865;52.552;13.434;2022-08-21T00:40:00;9.98;;;7.80;;
13588;SDS011;6865;52.552;13.434;2022-08-21T00:42:28;9.55;;;7.70;;
13588;SDS011;6865;52.552;13.434;2022-08-21T00:44:56;8.27;;;7.40;;
13588;SDS011;6865;52.552;13.434;2022-08-21T00:47:23;8.27;;;7.32;;
13588;SDS011;6865;52.552;13.434;2022-08-21T00:49:50;7.85;;;6.80;;
13588;SDS011;6865;52.552;13.434;2022-08-21T00:52:19;7.85;;;7.03;;
13588;SDS011;6865;52.552;13.434;2022-08-21T00:54:50;8.77;;;6.95;;
13588;SDS011;6865;52.552;13.434;2022-08-21T00:57:24;9.55;;;7.07;;
13588;SDS011;6865;52.552;13.434;2022-08-21T00:59:55;7.80;;;7.10;;
13588;SDS011;6865;52.552;13.434;2022-08-21T01:02:24;10.48;;;7.63;;
13588;SDS011;6865;52.552;13.434;2022-08-21T01:04:51;9.02;;;7.05;;
13588;SDS011;6865;52.552;13.434;2022-08-21T01:07:19;8.98;;;7.43;;
13588;SDS011;6865;52.552;13.434;2022-08-21T01:09:47;7.90;;;7.05;;
13588;SDS011;6865;52.552;13.434;2022-08-21T01:12:15;8.35;;;7.55;;
13588;SDS011;6865;52.552;13.434;2022-08-21T01:14:42;8.95;;;7.40;;
13588;SDS011;6865;52.552;13.434;2022-08-21T01:17:09;8.05;;;7.30;;
13588;SDS011;6865;52.552;13.434;2022-08-21T01:19:41;8.77;;;7.30;;
13588;SDS011;6865;52.552;13.434;2022-08-21T01:22:08;8.02;;;6.15;;
13588;SDS011;6865;52.552;13.434;2022-08-21T01:24:36;8.40;;;6.53;;
13588;SDS011;6865;52.552;13.434;2022-08-21T01:27:03;7.90;;;6.35;;
13588;SDS011;6865;52.552;13.434;2022-08-21T01:29:41;8.90;;;6.32;;
13588;SDS011;6865;52.552;13.434;2022-08-21T01:32:18;8.15;;;6.47;;
13588;SDS011;6865;52.552;13.434;2022-08-21T01:34:46;10.45;;;6.97;;
13588;SDS011;6865;52.552;13.434;2022-08-21T01:37:14;10.65;;;6.60;;
13588;SDS011;6865;52.552;13.434;2022-08-21T01:39:43;8.55;;;6.80;;
13588;SDS011;6865;52.552;13.434;2022-08-21T01:42:10;7.13;;;6.43;;
13588;SDS011;6865;52.552;13.434;2022-08-21T01:44:39;7.50;;;6.78;;
13588;SDS011;6865;52.552;13.434;2022-08-21T01:47:07;8.90;;;6.78;;
13588;SDS011;6865;52.552;13.434;2022-08-21T01:49:36;11.43;;;6.53;;
13588;SDS011;6865;52.552;13.434;2022-08-21T01:52:04;8.25;;;5.88;;
13588;SDS011;6865;52.552;13.434;2022-08-21T01:54:34;8.90;;;6.15;;
13588;SDS011;6865;52.552;13.434;2022-08-21T01:57:02;8.75;;;6.15;;
13588;SDS011;6865;52.552;13.434;2022-08-21T01:59:29;9.82;;;6.05;;
13588;SDS011;6865;52.552;13.434;2022-08-21T02:01:56;6.50;;;5.85;;
13588;SDS011;6865;52.552;13.434;2022-08-21T02:04:23;6.47;;;5.80;;
13588;SDS011;6865;52.552;13.434;2022-08-21T02:06:50;6.75;;;5.90;;
13588;SDS011;6865;52.552;13.434;2022-08-21T02:09:18;8.27;;;5.80;;
13588;SDS011;6865;52.552;13.434;2022-08-21T02:11:45;8.18;;;5.35;;
13588;SDS011;6865;52.552;13.434;2022-08-21T02:14:12;9.73;;;6.13;;
13588;SDS011;6865;52.552;13.434;2022-08-21T02:16:57;7.97;;;5.28;;
13588;SDS011;6865;52.552;13.434;2022-08-21T02:19:34;7.35;;;5.90;;
13588;SDS011;6865;52.552;13.434;2022-08-21T02:22:06;6.97;;;5.80;;
13588;SDS011;6865;52.552;13.434;2022-08-21T02:24:36;6.72;;;5.47;;
13588;SDS011;6865;52.552;13.434;2022-08-21T02:27:19;7.63;;;5.50;;
13588;SDS011;6865;52.552;13.434;2022-08-21T02:29:51;9.38;;;5.53;;
13588;SDS011;6865;52.552;13.434;2022-08-21T02:32:18;6.95;;;5.45;;
13588;SDS011;6865;52.552;13.434;2022-08-21T02:34:44;6.80;;;5.40;;
13588;SDS011;6865;52.552;13.434;2022-08-21T02:37:11;8.18;;;5.43;;
13588;SDS011;6865;52.552;13.434;2022-08-21T02:39:38;7.63;;;5.05;;
13588;SDS011;6865;52.552;13.434;2022-08-21T02:42:05;6.57;;;4.70;;
13588;SDS011;6865;52.552;13.434;2022-08-21T02:44:32;8.55;;;5.13;;
13588;SDS011;6865;52.552;13.434;2022-08-21T02:47:00;5.28;;;4.53;;
13588;SDS011;6865;52.552;13.434;2022-08-21T02:49:26;5.28;;;4.20;;
13588;SDS011;6865;52.552;13.434;2022-08-21T02:51:53;7.95;;;4.82;;
13588;SDS011;6865;52.552;13.434;2022-08-21T02:54:20;7.55;;;4.65;;
13588;SDS011;6865;52.552;13.434;2022-08-21T02:56:47;6.20;;;4.43;;
13588;SDS011;6865;52.552;13.434;2022-08-21T02:59:13;6.93;;;4.47;;
13588;SDS011;6865;52.552;13.434;2022-08-21T03:01:40;9.45;;;4.13;;
13588;SDS011;6865;52.552;13.434;2022-08-21T03:04:07;8.05;;;4.50;;
13588;SDS011;6865;52.552;13.434;2022-08-21T03:06:33;6.30;;;4.40;;
13588;SDS011;6865;52.552;13.434;2022-08-21T03:09:00;6.95;;;4.30;;
13588;SDS011;6865;52.552;13.434;2022-08-21T03:11:26;8.05;;;4.55;;
13588;SDS011;6865;52.552;13.434;2022-08-21T03:13:53;8.68;;;4.50;;
13588;SDS011;6865;52.552;13.434;2022-08-21T03:16:20;8.70;;;4.38;;
13588;SDS011;6865;52.552;13.434;2022-08-21T03:18:47;5.38;;;3.83;;
13588;SDS011;6865;52.552;13.434;2022-08-21T03:21:13;12.85;;;3.80;;
13588;SDS011;6865;52.552;13.434;2022-08-21T03:23:40;10.17;;;4.23;;
13588;SDS011;6865;52.552;13.434;2022-08-21T03:26:09;6.43;;;4.00;;
13588;SDS011;6865;52.552;13.434;2022-08-21T03:28:37;14.53;;;4.13;;
13588;SDS011;6865;52.552;13.434;2022-08-21T03:31:04;9.00;;;4.07;;
13588;SDS011;6865;52.552;13.434;2022-08-21T03:33:31;6.70;;;3.60;;
13588;SDS011;6865;52.552;13.434;2022-08-21T03:36:00;9.05;;;4.32;;
13588;SDS011;6865;52.552;13.434;2022-08-21T03:38:31;10.60;;;4.57;;
13588;SDS011;6865;52.552;13.434;2022-08-21T03:40:59;8.67;;;3.70;;
13588;SDS011;6865;52.552;13.434;2022-08-21T03:43:26;7.77;;;3.93;;
13588;SDS011;6865;52.552;13.434;2022-08-21T03:45:58;9.27;;;3.93;;
13588;SDS011;6865;52.552;13.434;2022-08-21T03:48:29;6.73;;;4.00;;
13588;SDS011;6865;52.552;13.434;2022-08-21T03:50:56;6.32;;;3.80;;
13588;SDS011;6865;52.552;13.434;2022-08-21T03:53:23;6.10;;;3.60;;
13588;SDS011;6865;52.552;13.434;2022-08-21T03:55:51;8.18;;;4.03;;
13588;SDS011;6865;52.552;13.434;2022-08-21T03:58:19;5.17;;;3.33;;
13588;SDS011;6865;52.552;13.434;2022-08-21T04:00:49;8.83;;;3.60;;
13588;SDS011;6865;52.552;13.434;2022-08-21T04:03:18;6.50;;;3.20;;
13588;SDS011;6865;52.552;13.434;2022-08-21T04:05:46;6.50;;;3.90;;
13588;SDS011;6865;52.552;13.434;2022-08-21T04:08:13;7.43;;;3.87;;
13588;SDS011;6865;52.552;13.434;2022-08-21T04:10:45;5.00;;;3.17;;
13588;SDS011;6865;52.552;13.434;2022-08-21T04:13:14;5.13;;;3.53;;
13588;SDS011;6865;52.552;13.434;2022-08-21T04:15:41;9.40;;;3.75;;
13588;SDS011;6865;52.552;13.434;2022-08-21T04:18:08;5.07;;;3.03;;
13588;SDS011;6865;52.552;13.434;2022-08-21T04:20:35;6.43;;;3.27;;
13588;SDS011;6865;52.552;13.434;2022-08-21T04:23:03;8.17;;;3.70;;
13588;SDS011;6865;52.552;13.434;2022-08-21T04:25:29;6.87;;;3.40;;
13588;SDS011;6865;52.552;13.434;2022-08-21T04:27:56;5.35;;;3.33;;
13588;SDS011;6865;52.552;13.434;2022-08-21T04:30:23;9.33;;;3.47;;
13588;SDS011;6865;52.552;13.434;2022-08-21T04:32:54;5.82;;;3.50;;
13588;SDS011;6865;52.552;13.434;2022-08-21T04:35:23;8.97;;;3.40;;
13588;SDS011;6865;52.552;13.434;2022-08-21T04:37:51;6.75;;;3.20;;
13588;SDS011;6865;52.552;13.434;2022-08-21T04:40:18;7.20;;;3.43;;
13588;SDS011;6865;52.552;13.434;2022-08-21T04:42:48;7.23;;;3.93;;
13588;SDS011;6865;52.552;13.434;2022-08-21T04:45:24;11.33;;;3.57;;
13588;SDS011;6865;52.552;13.434;2022-08-21T04:47:54;8.17;;;3.20;;
13588;SDS011;6865;52.552;13.434;2022-08-21T04:50:24;6.50;;;3.27;;
13588;SDS011;6865;52.552;13.434;2022-08-21T04:53:08;8.93;;;3.27;;
13588;SDS011;6865;52.552;13.434;2022-08-21T04:55:44;5.10;;;3.13;;
13588;SDS011;6865;52.552;13.434;2022-08-21T04:58:12;10.23;;;3.37;;
13588;SDS011;6865;52.552;13.434;2022-08-21T05:00:41;9.10;;;3.10;;
13588;SDS011;6865;52.552;13.434;2022-08-21T05:03:08;6.50;;;3.23;;
13588;SDS011;6865;52.552;13.434;2022-08-21T05:05:36;5.10;;;3.00;;
13588;SDS011;6865;52.552;13.434;2022-08-21T05:08:04;9.07;;;3.30;;
13588;SDS011;6865;52.552;13.434;2022-08-21T05:10:33;7.43;;;3.00;;
13588;SDS011;6865;52.552;13.434;2022-08-21T05:13:00;8.88;;;3.13;;
13588;SDS011;6865;52.552;13.434;2022-08-21T05:15:27;9.37;;;3.73;;
13588;SDS011;6865;52.552;13.434;2022-08-21T05:17:54;5.37;;;3.40;;
13588;SDS011;6865;52.552;13.434;2022-08-21T05:20:26;9.77;;;3.40;;
13588;SDS011;6865;52.552;13.434;2022-08-21T05:22:53;7.80;;;3.20;;
13588;SDS011;6865;52.552;13.434;2022-08-21T05:25:20;5.67;;;3.00;;
13588;SDS011;6865;52.552;13.434;2022-08-21T05:27:49;7.07;;;3.10;;
13588;SDS011;6865;52.552;13.434;2022-08-21T05:30:18;5.13;;;2.67;;
13588;SDS011;6865;52.552;13.434;2022-08-21T05:32:46;6.03;;;2.90;;
13588;SDS011;6865;52.552;13.434;2022-08-21T05:35:13;5.78;;;2.95;;
13588;SDS011;6865;52.552;13.434;2022-08-21T05:37:40;7.43;;;2.67;;
13588;SDS011;6865;52.552;13.434;2022-08-21T05:40:07;6.80;;;2.95;;
13588;SDS011;6865;52.552;13.434;2022-08-21T05:42:48;6.18;;;2.83;;
13588;SDS011;6865;52.552;13.434;2022-08-21T05:45:19;5.10;;;2.90;;
13588;SDS011;6865;52.552;13.434;2022-08-21T05:48:07;5.27;;;2.47;;
13588;SDS011;6865;52.552;13.434;2022-08-21T05:50:40;7.53;;;2.60;;
13588;SDS011;6865;52.552;13.434;2022-08-21T05:53:07;7.57;;;2.90;;
13588;SDS011;6865;52.552;13.434;2022-08-21T05:55:35;7.35;;;2.67;;
13588;SDS011;6865;52.552;13.434;2022-08-21T05:58:09;8.20;;;3.10;;
13588;SDS011;6865;52.552;13.434;2022-08-21T06:00:36;8.60;;;2.70;;
13588;SDS011;6865;52.552;13.434;2022-08-21T06:03:03;7.25;;;2.58;;
13588;SDS011;6865;52.552;13.434;2022-08-21T06:05:30;4.25;;;2.50;;
13588;SDS011;6865;52.552;13.434;2022-08-21T06:08:02;6.40;;;2.60;;
13588;SDS011;6865;52.552;13.434;2022-08-21T06:10:30;6.47;;;2.45;;
13588;SDS011;6865;52.552;13.434;2022-08-21T06:12:57;5.90;;;2.53;;
13588;SDS011;6865;52.552;13.434;2022-08-21T06:15:24;8.65;;;2.55;;
13588;SDS011;6865;52.552;13.434;2022-08-21T06:17:51;5.22;;;2.33;;
13588;SDS011;6865;52.552;13.434;2022-08-21T06:20:19;8.68;;;2.45;;
13588;SDS011;6865;52.552;13.434;2022-08-21T06:22:46;7.03;;;2.55;;
13588;SDS011;6865;52.552;13.434;2022-08-21T06:25:12;8.60;;;2.83;;
13588;SDS011;6865;52.552;13.434;2022-08-21T06:27:39;8.32;;;2.42;;
13588;SDS011;6865;52.552;13.434;2022-08-21T06:30:06;6.85;;;2.50;;
13588;SDS011;6865;52.552;13.434;2022-08-21T06:32:34;4.20;;;2.20;;
13588;SDS011;6865;52.552;13.434;2022-08-21T06:35:01;8.07;;;2.42;;
13588;SDS011;6865;52.552;13.434;2022-08-21T06:37:28;4.88;;;2.40;;
13588;SDS011;6865;52.552;13.434;2022-08-21T06:39:55;6.30;;;2.30;;
13588;SDS011;6865;52.552;13.434;2022-08-21T06:42:23;6.57;;;2.22;;
13588;SDS011;6865;52.552;13.434;2022-08-21T06:44:53;6.63;;;2.67;;
13588;SDS011;6865;52.552;13.434;2022-08-21T06:47:19;6.50;;;2.50;;
13588;SDS011;6865;52.552;13.434;2022-08-21T06:49:46;5.22;;;2.10;;
13588;SDS011;6865;52.552;13.434;2022-08-21T06:52:13;8.23;;;2.78;;
13588;SDS011;6865;52.552;13.434;2022-08-21T06:54:40;3.78;;;1.98;;
13588;SDS011;6865;52.552;13.434;2022-08-21T06:57:06;6.38;;;2.20;;
13588;SDS011;6865;52.552;13.434;2022-08-21T06:59:33;5.05;;;2.30;;
13588;SDS011;6865;52.552;13.434;2022-08-21T07:02:00;6.60;;;2.38;;
13588;SDS011;6865;52.552;13.434;2022-08-21T07:04:27;7.38;;;2.22;;
13588;SDS011;6865;52.552;13.434;2022-08-21T07:06:54;5.55;;;2.08;;
13588;SDS011;6865;52.552;13.434;2022-08-21T07:09:20;5.80;;;2.45;;
13588;SDS011;6865;52.552;13.434;2022-08-21T07:11:51;5.57;;;2.40;;
13588;SDS011;6865;52.552;13.434;2022-08-21T07:14:20;7.65;;;2.47;;
13588;SDS011;6865;52.552;13.434;2022-08-21T07:16:48;6.53;;;2.22;;
13588;SDS011;6865;52.552;13.434;2022-08-21T07:19:17;9.05;;;3.00;;
13588;SDS011;6865;52.552;13.434;2022-08-21T07:21:44;8.35;;;2.05;;
13588;SDS011;6865;52.552;13.434;2022-08-21T07:24:11;5.20;;;2.42;;
13588;SDS011;6865;52.552;13.434;2022-08-21T07:26:38;9.25;;;2.08;;
13588;SDS011;6865;52.552;13.434;2022-08-21T07:29:05;6.47;;;2.63;;
13588;SDS011;6865;52.552;13.434;2022-08-21T07:31:32;7.60;;;2.22;;
13588;SDS011;6865;52.552;13.434;2022-08-21T07:33:58;5.32;;;2.05;;
13588;SDS011;6865;52.552;13.434;2022-08-21T07:36:25;4.55;;;2.00;;
13588;SDS011;6865;52.552;13.434;2022-08-21T07:38:51;4.72;;;2.70;;
13588;SDS011;6865;52.552;13.434;2022-08-21T07:41:20;6.32;;;2.20;;
13588;SDS011;6865;52.552;13.434;2022-08-21T07:43:49;5.13;;;1.88;;
13588;SDS011;6865;52.552;13.434;2022-08-21T07:46:18;5.63;;;2.00;;
13588;SDS011;6865;52.552;13.434;2022-08-21T07:48:45;4.05;;;1.95;;
13588;SDS011;6865;52.552;13.434;2022-08-21T07:51:12;4.93;;;1.83;;
13588;SDS011;6865;52.552;13.434;2022-08-21T07:53:41;5.68;;;1.90;;
13588;SDS011;6865;52.552;13.434;2022-08-21T07:56:08;4.28;;;1.90;;
13588;SDS011;6865;52.552;13.434;2022-08-21T07:58:37;4.07;;;1.73;;
13588;SDS011;6865;52.552;13.434;2022-08-21T08:01:04;5.10;;;1.85;;
13588;SDS011;6865;52.552;13.434;2022-08-21T08:03:32;4.80;;;1.95;;
13588;SDS011;6865;52.552;13.434;2022-08-21T08:05:59;7.28;;;2.05;;
13588;SDS011;6865;52.552;13.434;2022-08-21T08:08:27;8.55;;;2.60;;
13588;SDS011;6865;52.552;13.434;2022-08-21T08:10:54;6.75;;;2.35;;
13588;SDS011;6865;52.552;13.434;2022-08-21T08:13:23;7.00;;;2.13;;
13588;SDS011;6865;52.552;13.434;2022-08-21T08:15:50;4.47;;;1.90;;
13588;SDS011;6865;52.552;13.434;2022-08-21T08:18:17;5.93;;;2.00;;
13588;SDS011;6865;52.552;13.434;2022-08-21T08:20:44;4.57;;;2.22;;
13588;SDS011;6865;52.552;13.434;2022-08-21T08:23:11;5.13;;;1.88;;
13588;SDS011;6865;52.552;13.434;2022-08-21T08:25:39;4.38;;;1.90;;
13588;SDS011;6865;52.552;13.434;2022-08-21T08:28:06;8.20;;;2.13;;
13588;SDS011;6865;52.552;13.434;2022-08-21T08:30:43;4.70;;;1.75;;
13588;SDS011;6865;52.552;13.434;2022-08-21T08:33:11;4.80;;;1.77;;
13588;SDS011;6865;52.552;13.434;2022-08-21T08:35:44;2.60;;;1.90;;
13588;SDS011;6865;52.552;13.434;2022-08-21T08:38:13;8.23;;;2.10;;
13588;SDS011;6865;52.552;13.434;2022-08-21T08:43:58;5.00;;;2.28;;
13588;SDS011;6865;52.552;13.434;2022-08-21T08:46:33;7.13;;;2.17;;
13588;SDS011;6865;52.552;13.434;2022-08-21T08:49:06;4.78;;;2.08;;
13588;SDS011;6865;52.552;13.434;2022-08-21T08:51:52;5.38;;;2.00;;
13588;SDS011;6865;52.552;13.434;2022-08-21T08:54:31;3.63;;;1.75;;
13588;SDS011;6865;52.552;13.434;2022-08-21T08:57:10;5.25;;;1.90;;
13588;SDS011;6865;52.552;13.434;2022-08-21T08:59:43;6.95;;;2.33;;
13588;SDS011;6865;52.552;13.434;2022-08-21T09:02:14;5.85;;;2.00;;
13588;SDS011;6865;52.552;13.434;2022-08-21T09:04:42;6.30;;;2.35;;
13588;SDS011;6865;52.552;13.434;2022-08-21T09:07:16;9.65;;;2.10;;
13588;SDS011;6865;52.552;13.434;2022-08-21T09:15:21;4.43;;;1.85;;
13588;SDS011;6865;52.552;13.434;2022-08-21T09:20:48;4.45;;;2.10;;
13588;SDS011;6865;52.552;13.434;2022-08-21T09:26:14;7.45;;;2.10;;
13588;SDS011;6865;52.552;13.434;2022-08-21T09:28:43;4.03;;;1.90;;
13588;SDS011;6865;52.552;13.434;2022-08-21T09:31:14;5.03;;;2.00;;
13588;SDS011;6865;52.552;13.434;2022-08-21T09:33:47;6.15;;;2.10;;
13588;SDS011;6865;52.552;13.434;2022-08-21T09:36:22;5.10;;;2.30;;
13588;SDS011;6865;52.552;13.434;2022-08-21T09:39:03;7.80;;;1.77;;
13588;SDS011;6865;52.552;13.434;2022-08-21T09:41:32;4.32;;;1.88;;
13588;SDS011;6865;52.552;13.434;2022-08-21T09:44:02;7.25;;;2.20;;
13588;SDS011;6865;52.552;13.434;2022-08-21T09:46:30;4.68;;;2.08;;
13588;SDS011;6865;52.552;13.434;2022-08-21T09:48:58;5.25;;;2.40;;
13588;SDS011;6865;52.552;13.434;2022-08-21T09:51:34;5.63;;;1.98;;
13588;SDS011;6865;52.552;13.434;2022-08-21T09:56:34;4.32;;;1.73;;
13588;SDS011;6865;52.552;13.434;2022-08-21T09:59:31;5.65;;;1.80;;
13588;SDS011;6865;52.552;13.434;2022-08-21T10:02:20;3.83;;;1.95;;
13588;SDS011;6865;52.552;13.434;2022-08-21T10:04:57;3.45;;;1.85;;
13588;SDS011;6865;52.552;13.434;2022-08-21T10:07:48;4.57;;;2.00;;
13588;SDS011;6865;52.552;13.434;2022-08-21T10:10:23;5.35;;;2.05;;
13588;SDS011;6865;52.552;13.434;2022-08-21T10:12:59;5.47;;;2.00;;
13588;SDS011;6865;52.552;13.434;2022-08-21T10:18:28;5.47;;;2.15;;
13588;SDS011;6865;52.552;13.434;2022-08-21T10:24:08;6.57;;;2.40;;
13588;SDS011;6865;52.552;13.434;2022-08-21T10:27:02;3.90;;;2.00;;
13588;SDS011;6865;52.552;13.434;2022-08-21T10:29:39;6.07;;;2.20;;
13588;SDS011;6865;52.552;13.434;2022-08-21T10:35:22;4.22;;;1.80;;
13588;SDS011;6865;52.552;13.434;2022-08-21T10:38:16;3.63;;;1.67;;
13588;SDS011;6865;52.552;13.434;2022-08-21T10:41:32;6.53;;;1.90;;
13588;SDS011;6865;52.552;13.434;2022-08-21T10:44:34;4.78;;;2.03;;
13588;SDS011;6865;52.552;13.434;2022-08-21T10:48:03;3.53;;;1.90;;
13588;SDS011;6865;52.552;13.434;2022-08-21T10:50:26;5.47;;;2.00;;
13588;SDS011;6865;52.552;13.434;2022-08-21T10:56:08;4.75;;;1.90;;
13588;SDS011;6865;52.552;13.434;2022-08-21T10:58:49;4.55;;;2.10;;
13588;SDS011;6865;52.552;13.434;2022-08-21T11:01:42;2.90;;;1.70;;
13588;SDS011;6865;52.552;13.434;2022-08-21T11:04:30;4.00;;;2.10;;
13588;SDS011;6865;52.552;13.434;2022-08-21T11:10:24;4.57;;;2.03;;
13588;SDS011;6865;52.552;13.434;2022-08-21T11:13:14;2.85;;;1.83;;
13588;SDS011;6865;52.552;13.434;2022-08-21T11:16:07;5.68;;;1.95;;
13588;SDS011;6865;52.552;13.434;2022-08-21T11:18:47;5.50;;;1.98;;
13588;SDS011;6865;52.552;13.434;2022-08-21T11:21:27;4.55;;;1.90;;
13588;SDS011;6865;52.552;13.434;2022-08-21T11:26:46;4.80;;;1.80;;
13588;SDS011;6865;52.552;13.434;2022-08-21T11:34:54;3.05;;;1.63;;
13588;SDS011;6865;52.552;13.434;2022-08-21T11:40:24;2.08;;;1.35;;
13588;SDS011;6865;52.552;13.434;2022-08-21T11:46:01;4.72;;;1.52;;
13588;SDS011;6865;52.552;13.434;2022-08-21T11:49:01;4.38;;;2.00;;
13588;SDS011;6865;52.552;13.434;2022-08-21T11:51:53;2.60;;;1.40;;
13588;SDS011;6865;52.552;13.434;2022-08-21T11:54:42;4.03;;;1.60;;
13588;SDS011;6865;52.552;13.434;2022-08-21T11:57:26;3.67;;;1.55;;
13588;SDS011;6865;52.552;13.434;2022-08-21T12:00:06;3.63;;;1.48;;
13588;SDS011;6865;52.552;13.434;2022-08-21T12:02:53;2.70;;;1.40;;
13588;SDS011;6865;52.552;13.434;2022-08-21T12:05:25;1.40;;;1.30;;
13588;SDS011;6865;52.552;13.434;2022-08-21T12:08:02;2.67;;;1.40;;
13588;SDS011;6865;52.552;13.434;2022-08-21T12:10:34;1.90;;;1.33;;
13588;SDS011;6865;52.552;13.434;2022-08-21T12:13:29;1.40;;;1.02;;
13588;SDS011;6865;52.552;13.434;2022-08-21T12:16:11;2.63;;;1.30;;
13588;SDS011;6865;52.552;13.434;2022-08-21T12:18:41;3.35;;;1.40;;
13588;SDS011;6865;52.552;13.434;2022-08-21T12:21:25;3.95;;;1.25;;
13588;SDS011;6865;52.552;13.434;2022-08-21T12:26:52;1.83;;;1.30;;
13588;SDS011;6865;52.552;13.434;2022-08-21T12:29:30;2.78;;;1.50;;
13588;SDS011;6865;52.552;13.434;2022-08-21T12:32:42;3.72;;;1.40;;
13588;SDS011;6865;52.552;13.434;2022-08-21T12:35:17;3.13;;;1.52;;
13588;SDS011;6865;52.552;13.434;2022-08-21T12:38:02;2.75;;;1.52;;
13588;SDS011;6865;52.552;13.434;2022-08-21T12:40:50;1.65;;;1.23;;
13588;SDS011;6865;52.552;13.434;2022-08-21T12:43:34;1.95;;;1.40;;
13588;SDS011;6865;52.552;13.434;2022-08-21T12:46:05;1.85;;;1.30;;
13588;SDS011;6865;52.552;13.434;2022-08-21T12:48:39;2.53;;;1.35;;
13588;SDS011;6865;52.552;13.434;2022-08-21T12:51:12;2.40;;;1.50;;
13588;SDS011;6865;52.552;13.434;2022-08-21T12:53:43;2.33;;;1.38;;
13588;SDS011;6865;52.552;13.434;2022-08-21T12:56:16;1.67;;;1.20;;
13588;SDS011;6865;52.552;13.434;2022-08-21T12:58:48;2.28;;;1.30;;
13588;SDS011;6865;52.552;13.434;2022-08-21T13:01:25;3.25;;;1.20;;
13588;SDS011;6865;52.552;13.434;2022-08-21T13:04:08;3.22;;;1.67;;
13588;SDS011;6865;52.552;13.434;2022-08-21T13:06:40;2.90;;;1.70;;
13588;SDS011;6865;52.552;13.434;2022-08-21T13:09:11;2.88;;;1.33;;
13588;SDS011;6865;52.552;13.434;2022-08-21T13:11:41;2.25;;;1.60;;
13588;SDS011;6865;52.552;13.434;2022-08-21T13:14:21;4.18;;;1.27;;
13588;SDS011;6865;52.552;13.434;2022-08-21T13:17:10;1.90;;;1.33;;
13588;SDS011;6865;52.552;13.434;2022-08-21T13:19:37;1.73;;;1.33;;
13588;SDS011;6865;52.552;13.434;2022-08-21T13:22:04;2.67;;;1.60;;
13588;SDS011;6865;52.552;13.434;2022-08-21T13:24:59;3.10;;;1.50;;
13588;SDS011;6865;52.552;13.434;2022-08-21T13:27:31;3.60;;;1.65;;
13588;SDS011;6865;52.552;13.434;2022-08-21T13:32:30;4.35;;;1.50;;
13588;SDS011;6865;52.552;13.434;2022-08-21T13:34:59;2.90;;;1.70;;
13588;SDS011;6865;52.552;13.434;2022-08-21T13:37:34;3.88;;;1.77;;
13588;SDS011;6865;52.552;13.434;2022-08-21T13:40:01;3.85;;;1.77;;
13588;SDS011;6865;52.552;13.434;2022-08-21T13:42:29;3.05;;;1.77;;
13588;SDS011;6865;52.552;13.434;2022-08-21T13:44:55;4.78;;;2.05;;
13588;SDS011;6865;52.552;13.434;2022-08-21T13:47:22;2.42;;;1.58;;
13588;SDS011;6865;52.552;13.434;2022-08-21T13:49:50;4.55;;;1.77;;
13588;SDS011;6865;52.552;13.434;2022-08-21T13:52:25;3.85;;;1.77;;
13588;SDS011;6865;52.552;13.434;2022-08-21T13:57:45;5.22;;;1.85;;
13588;SDS011;6865;52.552;13.434;2022-08-21T14:00:13;4.70;;;1.85;;
13588;SDS011;6865;52.552;13.434;2022-08-21T14:02:44;3.65;;;1.88;;
13588;SDS011;6865;52.552;13.434;2022-08-21T14:05:14;2.92;;;1.73;;
13588;SDS011;6865;52.552;13.434;2022-08-21T14:07:51;3.10;;;1.90;;
13588;SDS011;6865;52.552;13.434;2022-08-21T14:10:28;6.47;;;2.00;;
13588;SDS011;6865;52.552;13.434;2022-08-21T14:13:01;3.90;;;2.17;;
13588;SDS011;6865;52.552;13.434;2022-08-21T14:15:30;4.53;;;2.35;;
13588;SDS011;6865;52.552;13.434;2022-08-21T14:21:05;4.15;;;2.13;;
13588;SDS011;6865;52.552;13.434;2022-08-21T14:23:33;6.18;;;2.30;;
13588;SDS011;6865;52.552;13.434;2022-08-21T14:26:01;8.07;;;2.33;;
13588;SDS011;6865;52.552;13.434;2022-08-21T14:28:30;4.90;;;2.20;;
13588;SDS011;6865;52.552;13.434;2022-08-21T14:31:19;4.07;;;1.85;;
13588;SDS011;6865;52.552;13.434;2022-08-21T14:33:48;4.68;;;2.03;;
13588;SDS011;6865;52.552;13.434;2022-08-21T14:36:14;5.82;;;2.00;;
13588;SDS011;6865;52.552;13.434;2022-08-21T14:38:41;3.75;;;2.00;;
13588;SDS011;6865;52.552;13.434;2022-08-21T14:41:12;4.53;;;2.00;;
13588;SDS011;6865;52.552;13.434;2022-08-21T14:43:42;5.28;;;2.00;;
13588;SDS011;6865;52.552;13.434;2022-08-21T14:46:10;3.30;;;1.88;;
13588;SDS011;6865;52.552;13.434;2022-08-21T14:48:38;4.30;;;2.25;;
13588;SDS011;6865;52.552;13.434;2022-08-21T14:51:05;3.88;;;1.70;;
13588;SDS011;6865;52.552;13.434;2022-08-21T14:53:32;3.85;;;2.03;;
13588;SDS011;6865;52.552;13.434;2022-08-21T14:55:59;5.20;;;2.08;;
13588;SDS011;6865;52.552;13.434;2022-08-21T14:58:34;4.97;;;2.25;;
13588;SDS011;6865;52.552;13.434;2022-08-21T15:01:03;5.15;;;2.17;;
13588;SDS011;6865;52.552;13.434;2022-08-21T15:03:32;4.03;;;2.22;;
13588;SDS011;6865;52.552;13.434;2022-08-21T15:05:59;5.15;;;2.30;;
13588;SDS011;6865;52.552;13.434;2022-08-21T15:08:26;6.20;;;2.28;;
13588;SDS011;6865;52.552;13.434;2022-08-21T15:10:53;5.07;;;2.33;;
13588;SDS011;6865;52.552;13.434;2022-08-21T15:13:37;5.97;;;2.10;;
13588;SDS011;6865;52.552;13.434;2022-08-21T15:16:04;6.07;;;2.00;;
13588;SDS011;6865;52.552;13.434;2022-08-21T15:18:31;4.45;;;2.65;;
13588;SDS011;6865;52.552;13.434;2022-08-21T15:20:58;3.97;;;2.33;;
13588;SDS011;6865;52.552;13.434;2022-08-21T15:23:25;3.63;;;2.25;;
13588;SDS011;6865;52.552;13.434;2022-08-21T15:25:51;5.20;;;2.10;;
13588;SDS011;6865;52.552;13.434;2022-08-21T15:28:19;4.28;;;2.30;;
13588;SDS011;6865;52.552;13.434;2022-08-21T15:30:47;4.90;;;2.33;;
13588;SDS011;6865;52.552;13.434;2022-08-21T15:33:15;4.32;;;2.28;;
13588;SDS011;6865;52.552;13.434;2022-08-21T15:35:42;4.60;;;2.08;;
13588;SDS011;6865;52.552;13.434;2022-08-21T15:38:09;4.72;;;2.88;;
13588;SDS011;6865;52.552;13.434;2022-08-21T15:40:36;4.53;;;2.42;;
13588;SDS011;6865;52.552;13.434;2022-08-21T15:43:04;3.88;;;2.47;;
13588;SDS011;6865;52.552;13.434;2022-08-21T15:45:32;5.80;;;2.25;;
13588;SDS011;6865;52.552;13.434;2022-08-21T15:47:59;5.38;;;2.40;;
13588;SDS011;6865;52.552;13.434;2022-08-21T15:50:26;5.75;;;2.10;;
13588;SDS011;6865;52.552;13.434;2022-08-21T15:52:54;5.18;;;1.92;;
13588;SDS011;6865;52.552;13.434;2022-08-21T15:55:22;3.88;;;2.33;;
13588;SDS011;6865;52.552;13.434;2022-08-21T15:57:49;3.28;;;2.28;;
13588;SDS011;6865;52.552;13.434;2022-08-21T16:00:23;4.65;;;2.20;;
13588;SDS011;6865;52.552;13.434;2022-08-21T16:02:52;5.75;;;2.10;;
13588;SDS011;6865;52.552;13.434;2022-08-21T16:05:21;4.15;;;2.00;;
13588;SDS011;6865;52.552;13.434;2022-08-21T16:07:49;4.45;;;2.38;;
13588;SDS011;6865;52.552;13.434;2022-08-21T16:10:17;3.25;;;2.80;;